sensor_id;sensor_type;location;lat;lon;timestamp;pressure;altitude;pressure_sealevel;temperature;humidity
46347;BME280;32057;47.830;19.046;2023-10-19T00:01:15;99835.81;;;5.05;100.00
46347;BME280;32057;47.830;19.046;2023-10-19T00:03:41;99839.38;;;5.08;100.00
46347;BME280;32057;47.830;19.046;2023-10-19T00:06:06;99838.59;;;5.11;100.00
46347;BME280;32057;47.830;19.046;2023-10-19T00:08:32;99825.81;;;5.14;100.00
46347;BME280;32057;47.830;19.046;2023-10-19T00:11:07;99832.00;;;5.19;100.00
46347;BME280;32057;47.830;19.046;2023-10-19T00:13:46;99820.13;;;5.24;100.00
46347;BME280;32057;47.830;19.046;2023-10-19T00:16:14;99814.31;;;5.30;100.00
46347;BME280;32057;47.830;19.046;2023-10-19T00:18:45;99813.59;;;5.34;100.00
46347;BME280;32057;47.830;19.046;2023-10-19T00:21:14;99801.56;;;5.34;100.00
46347;BME280;32057;47.830;19.046;2023-10-19T00:23:47;99793.94;;;5.37;100.00
46347;BME280;32057;47.830;19.046;2023-10-19T00:26:13;99786.28;;;5.41;100.00
46347;BME280;32057;47.830;19.046;2023-10-19T00:28:50;99795.09;;;5.47;100.00
46347;BME280;32057;47.830;19.046;2023-10-19T00:31:19;99796.06;;;5.51;100.00
46347;BME280;32057;47.830;19.046;2023-10-19T00:33:45;99799.47;;;5.50;100.00
46347;BME280;32057;47.830;19.046;2023-10-19T00:36:11;99803.66;;;5.46;100.00
46347;BME280;32057;47.830;19.046;2023-10-19T00:38:41;99815.03;;;5.53;100.00
46347;BME280;32057;47.830;19.046;2023-10-19T00:41:23;99793.66;;;5.57;100.00
46347;BME280;32057;47.830;19.046;2023-10-19T00:43:55;99779.28;;;5.64;100.00
46347;BME280;32057;47.830;19.046;2023-10-19T00:46:30;99778.59;;;5.69;100.00
46347;BME280;32057;47.830;19.046;2023-10-19T00:49:19;99779.59;;;5.74;100.00
46347;BME280;32057;47.830;19.046;2023-10-19T00:51:51;99795.13;;;5.76;100.00
46347;BME280;32057;47.830;19.046;2023-10-19T00:54:21;99777.13;;;5.77;100.00
46347;BME280;32057;47.830;19.046;2023-10-19T00:56:59;99766.06;;;5.82;100.00
46347;BME280;32057;47.830;19.046;2023-10-19T00:59:30;99774.78;;;5.85;100.00
46347;BME280;32057;47.830;19.046;2023-10-19T01:01:56;99767.03;;;5.85;100.00
46347;BME280;32057;47.830;19.046;2023-10-19T01:04:40;99760.22;;;5.89;100.00
46347;BME280;32057;47.830;19.046;2023-10-19T01:07:09;99750.13;;;5.95;100.00
46347;BME280;32057;47.830;19.046;2023-10-19T01:09:42;99745.06;;;5.98;100.00
46347;BME280;32057;47.830;19.046;2023-10-19T01:12:09;99740.94;;;6.05;100.00
46347;BME280;32057;47.830;19.046;2023-10-19T01:17:33;99736.97;;;6.16;100.00
46347;BME280;32057;47.830;19.046;2023-10-19T01:20:07;99725.75;;;6.15;100.00
46347;BME280;32057;47.830;19.046;2023-10-19T01:22:53;99725.75;;;6.15;100.00
46347;BME280;32057;47.830;19.046;2023-10-19T01:25:30;99714.56;;;6.16;100.00
46347;BME280;32057;47.830;19.046;2023-10-19T01:28:08;99725.81;;;6.18;100.00
46347;BME280;32057;47.830;19.046;2023-10-19T01:30:34;99720.72;;;6.20;100.00
46347;BME280;32057;47.830;19.046;2023-10-19T01:33:01;99728.56;;;6.25;100.00
46347;BME280;32057;47.830;19.046;2023-10-19T01:35:28;99721.78;;;6.28;100.00
46347;BME280;32057;47.830;19.046;2023-10-19T01:38:13;99711.47;;;6.28;100.00
46347;BME280;32057;47.830;19.046;2023-10-19T01:40:38;99709.75;;;6.29;100.00
46347;BME280;32057;47.830;19.046;2023-10-19T01:43:14;99703.81;;;6.31;100.00
46347;BME280;32057;47.830;19.046;2023-10-19T01:45:46;99699.56;;;6.33;100.00
46347;BME280;32057;47.830;19.046;2023-10-19T01:48:12;99692.66;;;6.34;100.00
46347;BME280;32057;47.830;19.046;2023-10-19T01:50:41;99692.75;;;6.37;100.00
46347;BME280;32057;47.830;19.046;2023-10-19T01:53:07;99687.56;;;6.37;100.00
46347;BME280;32057;47.830;19.046;2023-10-19T01:55:42;99692.84;;;6.40;100.00
46347;BME280;32057;47.830;19.046;2023-10-19T01:58:09;99689.44;;;6.41;100.00
46347;BME280;32057;47.830;19.046;2023-10-19T02:00:35;99680.88;;;6.44;100.00
46347;BME280;32057;47.830;19.046;2023-10-19T02:03:07;99689.44;;;6.43;100.00
46347;BME280;32057;47.830;19.046;2023-10-19T02:05:33;99686.09;;;6.45;100.00
46347;BME280;32057;47.830;19.046;2023-10-19T02:08:06;99675.75;;;6.45;100.00
46347;BME280;32057;47.830;19.046;2023-10-19T02:10:35;99687.00;;;6.47;100.00
46347;BME280;32057;47.830;19.046;2023-10-19T02:13:02;99687.06;;;6.50;100.00
46347;BME280;32057;47.830;19.046;2023-10-19T02:15:33;99677.66;;;6.52;100.00
46347;BME280;32057;47.830;19.046;2023-10-19T02:18:01;99666.50;;;6.55;100.00
46347;BME280;32057;47.830;19.046;2023-10-19T02:20:28;99668.22;;;6.54;100.00
46347;BME280;32057;47.830;19.046;2023-10-19T02:22:56;99665.63;;;6.54;100.00
46347;BME280;32057;47.830;19.046;2023-10-19T02:25:29;99660.56;;;6.57;100.00
46347;BME280;32057;47.830;19.046;2023-10-19T02:27:59;99661.44;;;6.58;100.00
46347;BME280;32057;47.830;19.046;2023-10-19T02:30:24;99653.72;;;6.60;100.00
46347;BME280;32057;47.830;19.046;2023-10-19T02:32:50;99655.38;;;6.57;100.00
46347;BME280;32057;47.830;19.046;2023-10-19T02:35:16;99660.63;;;6.61;100.00
46347;BME280;32057;47.830;19.046;2023-10-19T02:37:41;99652.03;;;6.62;100.00
46347;BME280;32057;47.830;19.046;2023-10-19T02:40:07;99639.13;;;6.62;100.00
46347;BME280;32057;47.830;19.046;2023-10-19T02:42:55;99651.25;;;6.64;100.00
46347;BME280;32057;47.830;19.046;2023-10-19T02:45:21;99645.19;;;6.64;100.00
46347;BME280;32057;47.830;19.046;2023-10-19T02:47:47;99639.13;;;6.62;100.00
46347;BME280;32057;47.830;19.046;2023-10-19T02:50:12;99634.78;;;6.61;100.00
46347;BME280;32057;47.830;19.046;2023-10-19T02:52:41;99637.41;;;6.62;100.00
46347;BME280;32057;47.830;19.046;2023-10-19T02:55:08;99634.09;;;6.68;100.00
46347;BME280;32057;47.830;19.046;2023-10-19T02:57:35;99635.06;;;6.71;100.00
46347;BME280;32057;47.830;19.046;2023-10-19T03:00:02;99633.34;;;6.72;100.00
46347;BME280;32057;47.830;19.046;2023-10-19T03:02:33;99628.22;;;6.75;100.00
46347;BME280;32057;47.830;19.046;2023-10-19T03:04:58;99619.66;;;6.76;100.00
46347;BME280;32057;47.830;19.046;2023-10-19T03:07:26;99622.22;;;6.76;100.00
46347;BME280;32057;47.830;19.046;2023-10-19T03:09:51;99620.38;;;6.70;100.00
46347;BME280;32057;47.830;19.046;2023-10-19T03:12:20;99614.31;;;6.70;100.00
46347;BME280;32057;47.830;19.046;2023-10-19T03:14:46;99606.56;;;6.70;100.00
46347;BME280;32057;47.830;19.046;2023-10-19T03:17:14;99591.88;;;6.69;100.00
46347;BME280;32057;47.830;19.046;2023-10-19T03:19:39;99587.63;;;6.71;100.00
46347;BME280;32057;47.830;19.046;2023-10-19T03:22:05;99582.44;;;6.71;100.00
46347;BME280;32057;47.830;19.046;2023-10-19T03:24:31;99572.16;;;6.72;100.00
46347;BME280;32057;47.830;19.046;2023-10-19T03:27:07;99577.31;;;6.72;100.00
46347;BME280;32057;47.830;19.046;2023-10-19T03:29:44;99579.09;;;6.75;100.00
46347;BME280;32057;47.830;19.046;2023-10-19T03:32:20;99583.53;;;6.79;100.00
46347;BME280;32057;47.830;19.046;2023-10-19T03:34:56;99575.84;;;6.82;100.00
46347;BME280;32057;47.830;19.046;2023-10-19T03:37:30;99582.75;;;6.83;100.00
46347;BME280;32057;47.830;19.046;2023-10-19T03:39:56;99575.97;;;6.88;100.00
46347;BME280;32057;47.830;19.046;2023-10-19T03:42:22;99566.53;;;6.90;100.00
46347;BME280;32057;47.830;19.046;2023-10-19T03:44:50;99571.78;;;6.93;100.00
46347;BME280;32057;47.830;19.046;2023-10-19T03:47:19;99568.28;;;6.91;100.00
46347;BME280;32057;47.830;19.046;2023-10-19T03:49:46;99552.81;;;6.94;100.00
46347;BME280;32057;47.830;19.046;2023-10-19T03:52:12;99562.22;;;6.91;100.00
46347;BME280;32057;47.830;19.046;2023-10-19T03:54:38;99545.78;;;6.87;100.00
46347;BME280;32057;47.830;19.046;2023-10-19T03:57:11;99546.56;;;6.83;100.00
46347;BME280;32057;47.830;19.046;2023-10-19T03:59:40;99544.66;;;6.76;100.00
46347;BME280;32057;47.830;19.046;2023-10-19T04:02:09;99547.25;;;6.76;100.00
46347;BME280;32057;47.830;19.046;2023-10-19T04:04:38;99540.97;;;6.66;100.00
46347;BME280;32057;47.830;19.046;2023-10-19T04:07:04;99540.03;;;6.63;100.00
46347;BME280;32057;47.830;19.046;2023-10-19T04:09:36;99530.47;;;6.58;100.00
46347;BME280;32057;47.830;19.046;2023-10-19T04:12:22;99534.69;;;6.55;100.00
46347;BME280;32057;47.830;19.046;2023-10-19T04:14:47;99523.44;;;6.53;100.00
46347;BME280;32057;47.830;19.046;2023-10-19T04:17:13;99518.22;;;6.50;100.00
46347;BME280;32057;47.830;19.046;2023-10-19T04:19:38;99517.34;;;6.49;100.00
46347;BME280;32057;47.830;19.046;2023-10-19T04:22:04;99518.97;;;6.46;100.00
46347;BME280;32057;47.830;19.046;2023-10-19T04:24:30;99518.09;;;6.45;100.00
46347;BME280;32057;47.830;19.046;2023-10-19T04:26:58;99512.91;;;6.44;100.00
46347;BME280;32057;47.830;19.046;2023-10-19T04:29:24;99501.75;;;6.46;100.00
46347;BME280;32057;47.830;19.046;2023-10-19T04:31:53;99500.06;;;6.48;100.00
46347;BME280;32057;47.830;19.046;2023-10-19T04:34:22;99490.69;;;6.52;100.00
46347;BME280;32057;47.830;19.046;2023-10-19T04:36:51;99503.59;;;6.52;100.00
46347;BME280;32057;47.830;19.046;2023-10-19T04:39:17;99501.06;;;6.55;100.00
46347;BME280;32057;47.830;19.046;2023-10-19T04:41:46;99496.81;;;6.55;100.00
46347;BME280;32057;47.830;19.046;2023-10-19T04:44:14;99491.78;;;6.62;100.00
46347;BME280;32057;47.830;19.046;2023-10-19T04:46:41;99483.25;;;6.66;100.00
46347;BME280;32057;47.830;19.046;2023-10-19T04:49:06;99485.03;;;6.68;100.00
46347;BME280;32057;47.830;19.046;2023-10-19T04:51:32;99481.63;;;6.71;100.00
46347;BME280;32057;47.830;19.046;2023-10-19T04:53:59;99473.09;;;6.75;100.00
46347;BME280;32057;47.830;19.046;2023-10-19T04:56:25;99473.03;;;6.72;100.00
46347;BME280;32057;47.830;19.046;2023-10-19T04:58:50;99492.94;;;6.76;100.00
46347;BME280;32057;47.830;19.046;2023-10-19T05:01:16;99484.38;;;6.78;100.00
46347;BME280;32057;47.830;19.046;2023-10-19T05:03:41;99488.69;;;6.78;100.00
46347;BME280;32057;47.830;19.046;2023-10-19T05:06:07;99484.47;;;6.82;100.00
46347;BME280;32057;47.830;19.046;2023-10-19T05:08:35;99488.78;;;6.83;100.00
46347;BME280;32057;47.830;19.046;2023-10-19T05:11:02;99487.94;;;6.84;100.00
46347;BME280;32057;47.830;19.046;2023-10-19T05:13:28;99488.81;;;6.84;100.00
46347;BME280;32057;47.830;19.046;2023-10-19T05:15:55;99485.38;;;6.84;100.00
46347;BME280;32057;47.830;19.046;2023-10-19T05:18:22;99483.78;;;6.90;100.00
46347;BME280;32057;47.830;19.046;2023-10-19T05:20:48;99478.72;;;6.96;100.00
46347;BME280;32057;47.830;19.046;2023-10-19T05:23:14;99470.03;;;6.91;100.00
46347;BME280;32057;47.830;19.046;2023-10-19T05:25:40;99468.25;;;6.90;100.00
46347;BME280;32057;47.830;19.046;2023-10-19T05:28:06;99474.25;;;6.88;100.00
46347;BME280;32057;47.830;19.046;2023-10-19T05:30:35;99480.22;;;6.85;100.00
46347;BME280;32057;47.830;19.046;2023-10-19T05:33:00;99471.66;;;6.88;100.00
46347;BME280;32057;47.830;19.046;2023-10-19T05:35:30;99468.94;;;6.82;100.00
46347;BME280;32057;47.830;19.046;2023-10-19T05:37:58;99469.75;;;6.79;100.00
46347;BME280;32057;47.830;19.046;2023-10-19T05:40:24;99472.19;;;6.73;100.00
46347;BME280;32057;47.830;19.046;2023-10-19T05:42:58;99472.34;;;6.81;100.00
46347;BME280;32057;47.830;19.046;2023-10-19T05:45:25;99470.63;;;6.80;100.00
46347;BME280;32057;47.830;19.046;2023-10-19T05:47:52;99473.25;;;6.81;100.00
46347;BME280;32057;47.830;19.046;2023-10-19T05:50:17;99471.53;;;6.82;100.00
46347;BME280;32057;47.830;19.046;2023-10-19T05:52:43;99471.50;;;6.80;100.00
46347;BME280;32057;47.830;19.046;2023-10-19T05:55:12;99460.34;;;6.83;100.00
46347;BME280;32057;47.830;19.046;2023-10-19T05:57:38;99462.09;;;6.84;100.00
46347;BME280;32057;47.830;19.046;2023-10-19T06:00:10;99451.66;;;6.81;100.00
46347;BME280;32057;47.830;19.046;2023-10-19T06:02:42;99460.25;;;6.78;100.00
46347;BME280;32057;47.830;19.046;2023-10-19T06:05:13;99469.81;;;6.82;100.00
46347;BME280;32057;47.830;19.046;2023-10-19T06:07:46;99468.13;;;6.84;100.00
46347;BME280;32057;47.830;19.046;2023-10-19T06:10:15;99463.88;;;6.86;100.00
46347;BME280;32057;47.830;19.046;2023-10-19T06:12:46;99465.59;;;6.86;100.00
46347;BME280;32057;47.830;19.046;2023-10-19T06:15:12;99470.03;;;6.91;100.00
46347;BME280;32057;47.830;19.046;2023-10-19T06:17:39;99467.44;;;6.93;100.00
46347;BME280;32057;47.830;19.046;2023-10-19T06:20:09;99464.09;;;6.97;100.00
46347;BME280;32057;47.830;19.046;2023-10-19T06:22:46;99464.09;;;6.97;100.00
46347;BME280;32057;47.830;19.046;2023-10-19T06:25:17;99465.84;;;6.98;100.00
46347;BME280;32057;47.830;19.046;2023-10-19T06:27:43;99460.69;;;7.00;100.00
46347;BME280;32057;47.830;19.046;2023-10-19T06:30:09;99471.94;;;7.02;100.00
46347;BME280;32057;47.830;19.046;2023-10-19T06:32:35;99471.94;;;7.02;100.00
46347;BME280;32057;47.830;19.046;2023-10-19T06:35:02;99468.47;;;7.00;100.00
46347;BME280;32057;47.830;19.046;2023-10-19T06:37:28;99473.69;;;7.01;100.00
46347;BME280;32057;47.830;19.046;2023-10-19T06:39:54;99465.97;;;7.04;100.00
46347;BME280;32057;47.830;19.046;2023-10-19T06:42:20;99467.72;;;7.05;100.00
46347;BME280;32057;47.830;19.046;2023-10-19T06:44:46;99466.00;;;7.06;100.00
46347;BME280;32057;47.830;19.046;2023-10-19T06:47:11;99464.31;;;7.08;100.00
46347;BME280;32057;47.830;19.046;2023-10-19T06:49:38;99463.50;;;7.10;100.00
46347;BME280;32057;47.830;19.046;2023-10-19T06:52:04;99460.91;;;7.10;100.00
46347;BME280;32057;47.830;19.046;2023-10-19T06:54:30;99455.78;;;7.12;100.00
46347;BME280;32057;47.830;19.046;2023-10-19T06:56:56;99459.13;;;7.08;100.00
46347;BME280;32057;47.830;19.046;2023-10-19T06:59:21;99456.47;;;7.05;100.00
46347;BME280;32057;47.830;19.046;2023-10-19T07:01:47;99446.25;;;7.11;100.00
46347;BME280;32057;47.830;19.046;2023-10-19T07:04:12;99433.34;;;7.12;100.00
46347;BME280;32057;47.830;19.046;2023-10-19T07:06:38;99429.06;;;7.13;100.00
46347;BME280;32057;47.830;19.046;2023-10-19T07:09:04;99416.19;;;7.16;100.00
46347;BME280;32057;47.830;19.046;2023-10-19T07:11:31;99421.34;;;7.16;100.00
46347;BME280;32057;47.830;19.046;2023-10-19T07:14:01;99411.03;;;7.17;100.00
46347;BME280;32057;47.830;19.046;2023-10-19T07:16:28;99412.78;;;7.18;100.00
46347;BME280;32057;47.830;19.046;2023-10-19T07:18:54;99415.44;;;7.22;100.00
46347;BME280;32057;47.830;19.046;2023-10-19T07:21:20;99415.41;;;7.20;100.00
46347;BME280;32057;47.830;19.046;2023-10-19T07:23:48;99417.16;;;7.21;100.00
46347;BME280;32057;47.830;19.046;2023-10-19T07:26:17;99411.97;;;7.21;100.00
46347;BME280;32057;47.830;19.046;2023-10-19T07:28:44;99413.75;;;7.24;100.00
46347;BME280;32057;47.830;19.046;2023-10-19T07:31:10;99411.19;;;7.27;100.00
46347;BME280;32057;47.830;19.046;2023-10-19T07:33:40;99410.41;;;7.29;100.00
46347;BME280;32057;47.830;19.046;2023-10-19T07:36:14;99415.59;;;7.29;100.00
46347;BME280;32057;47.830;19.046;2023-10-19T07:38:39;99402.69;;;7.32;100.00
46347;BME280;32057;47.830;19.046;2023-10-19T07:41:06;99396.72;;;7.35;100.00
46347;BME280;32057;47.830;19.046;2023-10-19T07:43:31;99401.91;;;7.36;100.00
46347;BME280;32057;47.830;19.046;2023-10-19T07:45:57;99390.72;;;7.37;100.00
46347;BME280;32057;47.830;19.046;2023-10-19T07:48:22;99382.94;;;7.37;100.00
46347;BME280;32057;47.830;19.046;2023-10-19T07:50:47;99388.16;;;7.41;100.00
46347;BME280;32057;47.830;19.046;2023-10-19T07:53:13;99381.28;;;7.43;100.00
46347;BME280;32057;47.830;19.046;2023-10-19T07:55:39;99381.28;;;7.43;100.00
46347;BME280;32057;47.830;19.046;2023-10-19T07:58:04;99377.88;;;7.44;100.00
46347;BME280;32057;47.830;19.046;2023-10-19T08:00:32;99372.63;;;7.41;100.00
46347;BME280;32057;47.830;19.046;2023-10-19T08:03:00;99364.03;;;7.42;100.00
46347;BME280;32057;47.830;19.046;2023-10-19T08:05:26;99364.06;;;7.45;100.00
46347;BME280;32057;47.830;19.046;2023-10-19T08:07:52;99370.16;;;7.47;100.00
46347;BME280;32057;47.830;19.046;2023-10-19T08:10:19;99363.28;;;7.47;100.00
46347;BME280;32057;47.830;19.046;2023-10-19T08:12:46;99367.63;;;7.50;100.00
46347;BME280;32057;47.830;19.046;2023-10-19T08:15:15;99369.41;;;7.54;100.00
46347;BME280;32057;47.830;19.046;2023-10-19T08:17:43;99357.28;;;7.50;100.00
46347;BME280;32057;47.830;19.046;2023-10-19T08:20:10;99365.94;;;7.52;100.00
46347;BME280;32057;47.830;19.046;2023-10-19T08:22:44;99364.28;;;7.55;100.00
46347;BME280;32057;47.830;19.046;2023-10-19T08:25:12;99354.84;;;7.59;100.00
46347;BME280;32057;47.830;19.046;2023-10-19T08:27:49;99343.66;;;7.62;100.00
46347;BME280;32057;47.830;19.046;2023-10-19T08:30:17;99340.22;;;7.61;100.00
46347;BME280;32057;47.830;19.046;2023-10-19T08:32:46;99345.47;;;7.66;100.00
46347;BME280;32057;47.830;19.046;2023-10-19T08:35:16;99343.72;;;7.66;100.00
46347;BME280;32057;47.830;19.046;2023-10-19T08:37:43;99344.56;;;7.64;100.00
46347;BME280;32057;47.830;19.046;2023-10-19T08:40:11;99337.72;;;7.69;100.00
46347;BME280;32057;47.830;19.046;2023-10-19T08:42:47;99329.16;;;7.71;100.00
46347;BME280;32057;47.830;19.046;2023-10-19T08:45:14;99321.41;;;7.74;100.00
46347;BME280;32057;47.830;19.046;2023-10-19T08:47:54;99324.88;;;7.73;100.00
46347;BME280;32057;47.830;19.046;2023-10-19T08:50:32;99319.69;;;7.73;100.00
46347;BME280;32057;47.830;19.046;2023-10-19T08:53:02;99314.56;;;7.78;100.00
46347;BME280;32057;47.830;19.046;2023-10-19T08:55:29;99306.03;;;7.84;100.00
46347;BME280;32057;47.830;19.046;2023-10-19T08:57:55;99317.41;;;7.93;100.00
46347;BME280;32057;47.830;19.046;2023-10-19T09:00:24;99317.50;;;8.01;100.00
46347;BME280;32057;47.830;19.046;2023-10-19T09:02:53;99322.69;;;8.01;100.00
46347;BME280;32057;47.830;19.046;2023-10-19T09:05:19;99324.44;;;8.04;100.00
46347;BME280;32057;47.830;19.046;2023-10-19T09:07:52;99314.06;;;8.02;100.00
46347;BME280;32057;47.830;19.046;2023-10-19T09:10:27;99326.19;;;8.03;100.00
46347;BME280;32057;47.830;19.046;2023-10-19T09:12:59;99321.94;;;8.10;100.00
46347;BME280;32057;47.830;19.046;2023-10-19T09:15:27;99316.81;;;8.14;100.00
46347;BME280;32057;47.830;19.046;2023-10-19T09:17:53;99314.22;;;8.14;100.00
46347;BME280;32057;47.830;19.046;2023-10-19T09:20:20;99321.13;;;8.14;100.00
46347;BME280;32057;47.830;19.046;2023-10-19T09:22:55;99318.56;;;8.15;100.00
46347;BME280;32057;47.830;19.046;2023-10-19T09:25:23;99322.94;;;8.20;100.00
46347;BME280;32057;47.830;19.046;2023-10-19T09:27:49;99326.44;;;8.25;100.00
46347;BME280;32057;47.830;19.046;2023-10-19T09:30:15;99323.91;;;8.28;100.00
46347;BME280;32057;47.830;19.046;2023-10-19T09:32:46;99313.63;;;8.34;100.00
46347;BME280;32057;47.830;19.046;2023-10-19T09:35:13;99305.91;;;8.37;100.00
46347;BME280;32057;47.830;19.046;2023-10-19T09:37:41;99307.72;;;8.41;100.00
46347;BME280;32057;47.830;19.046;2023-10-19T09:40:08;99310.41;;;8.49;100.00
46347;BME280;32057;47.830;19.046;2023-10-19T09:42:43;99304.41;;;8.53;100.00
46347;BME280;32057;47.830;19.046;2023-10-19T09:45:11;99307.03;;;8.57;100.00
46347;BME280;32057;47.830;19.046;2023-10-19T09:47:38;99288.00;;;8.55;100.00
46347;BME280;32057;47.830;19.046;2023-10-19T09:50:06;99293.22;;;8.60;100.00
46347;BME280;32057;47.830;19.046;2023-10-19T09:52:36;99292.38;;;8.60;100.00
46347;BME280;32057;47.830;19.046;2023-10-19T10:00:05;99284.72;;;8.69;100.00
46347;BME280;32057;47.830;19.046;2023-10-19T10:02:39;99272.63;;;8.71;100.00
46347;BME280;32057;47.830;19.046;2023-10-19T10:15:52;99254.59;;;8.83;100.00
46347;BME280;32057;47.830;19.046;2023-10-19T10:18:18;99246.81;;;8.83;100.00
46347;BME280;32057;47.830;19.046;2023-10-19T10:20:43;99241.63;;;8.83;100.00
46347;BME280;32057;47.830;19.046;2023-10-19T10:23:23;99238.19;;;8.87;100.00
46347;BME280;32057;47.830;19.046;2023-10-19T10:25:53;99227.81;;;8.87;100.00
46347;BME280;32057;47.830;19.046;2023-10-19T10:28:19;99229.53;;;8.88;100.00
46347;BME280;32057;47.830;19.046;2023-10-19T10:31:18;99220.94;;;8.92;100.00
46347;BME280;32057;47.830;19.046;2023-10-19T10:33:49;99221.81;;;8.94;100.00
46347;BME280;32057;47.830;19.046;2023-10-19T10:36:17;99217.53;;;8.98;100.00
46347;BME280;32057;47.830;19.046;2023-10-19T10:38:44;99209.78;;;9.01;100.00
46347;BME280;32057;47.830;19.046;2023-10-19T10:41:09;99210.66;;;9.02;100.00
46347;BME280;32057;47.830;19.046;2023-10-19T10:43:52;99205.50;;;9.06;100.00
46347;BME280;32057;47.830;19.046;2023-10-19T10:46:19;99195.13;;;9.05;100.00
46347;BME280;32057;47.830;19.046;2023-10-19T10:48:45;99188.25;;;9.11;100.00
46347;BME280;32057;47.830;19.046;2023-10-19T10:51:24;99194.31;;;9.13;100.00
46347;BME280;32057;47.830;19.046;2023-10-19T10:53:51;99190.03;;;9.17;100.00
46347;BME280;32057;47.830;19.046;2023-10-19T10:56:18;99176.25;;;9.27;100.00
46347;BME280;32057;47.830;19.046;2023-10-19T10:58:45;99178.00;;;9.31;100.00
46347;BME280;32057;47.830;19.046;2023-10-19T11:01:11;99165.91;;;9.36;100.00
46347;BME280;32057;47.830;19.046;2023-10-19T11:03:40;99157.25;;;9.36;100.00
46347;BME280;32057;47.830;19.046;2023-10-19T11:06:08;99160.72;;;9.36;100.00
46347;BME280;32057;47.830;19.046;2023-10-19T11:08:35;99153.81;;;9.35;100.00
46347;BME280;32057;47.830;19.046;2023-10-19T11:11:09;99147.75;;;9.38;100.00
46347;BME280;32057;47.830;19.046;2023-10-19T11:13:38;99141.72;;;9.44;100.00
46347;BME280;32057;47.830;19.046;2023-10-19T11:16:06;99144.34;;;9.47;100.00
46347;BME280;32057;47.830;19.046;2023-10-19T11:18:36;99140.88;;;9.48;100.00
46347;BME280;32057;47.830;19.046;2023-10-19T11:21:05;99141.75;;;9.47;100.00
46347;BME280;32057;47.830;19.046;2023-10-19T11:23:47;99139.16;;;9.45;100.00
46347;BME280;32057;47.830;19.046;2023-10-19T11:26:15;99146.06;;;9.46;100.00
46347;BME280;32057;47.830;19.046;2023-10-19T11:28:41;99141.75;;;9.48;100.00
46347;BME280;32057;47.830;19.046;2023-10-19T11:31:22;99139.16;;;9.48;100.00
46347;BME280;32057;47.830;19.046;2023-10-19T11:33:50;99128.78;;;9.50;100.00
46347;BME280;32057;47.830;19.046;2023-10-19T11:36:19;99125.28;;;9.43;100.00
46347;BME280;32057;47.830;19.046;2023-10-19T11:38:47;99133.84;;;9.28;100.00
46347;BME280;32057;47.830;19.046;2023-10-19T11:41:14;99134.66;;;9.18;100.00
46347;BME280;32057;47.830;19.046;2023-10-19T11:43:41;99136.34;;;9.13;100.00
46347;BME280;32057;47.830;19.046;2023-10-19T11:46:08;99135.47;;;9.11;100.00
46347;BME280;32057;47.830;19.046;2023-10-19T11:48:34;99132.88;;;9.11;100.00
46347;BME280;32057;47.830;19.046;2023-10-19T11:51:01;99127.66;;;9.08;100.00
46347;BME280;32057;47.830;19.046;2023-10-19T11:53:33;99119.00;;;9.07;100.00
46347;BME280;32057;47.830;19.046;2023-10-19T11:56:17;99123.34;;;9.07;100.00
46347;BME280;32057;47.830;19.046;2023-10-19T11:58:43;99112.13;;;9.11;100.00
46347;BME280;32057;47.830;19.046;2023-10-19T12:01:12;99105.19;;;9.11;100.00
46347;BME280;32057;47.830;19.046;2023-10-19T12:03:41;99098.31;;;9.15;100.00
46347;BME280;32057;47.830;19.046;2023-10-19T12:06:07;99095.69;;;9.12;100.00
46347;BME280;32057;47.830;19.046;2023-10-19T12:08:37;99089.63;;;9.11;100.00
46347;BME280;32057;47.830;19.046;2023-10-19T12:11:03;99089.59;;;9.10;100.00
46347;BME280;32057;47.830;19.046;2023-10-19T12:13:30;99086.16;;;9.11;100.00
46347;BME280;32057;47.830;19.046;2023-10-19T12:15:58;99084.41;;;9.10;100.00
46347;BME280;32057;47.830;19.046;2023-10-19T12:18:24;99078.34;;;9.06;100.00
46347;BME280;32057;47.830;19.046;2023-10-19T12:20:54;99073.16;;;9.05;100.00
46347;BME280;32057;47.830;19.046;2023-10-19T12:23:25;99060.19;;;9.08;100.00
46347;BME280;32057;47.830;19.046;2023-10-19T12:25:50;99071.44;;;9.07;100.00
46347;BME280;32057;47.830;19.046;2023-10-19T12:28:15;99062.78;;;9.08;100.00
46347;BME280;32057;47.830;19.046;2023-10-19T12:30:41;99064.53;;;9.12;100.00
46347;BME280;32057;47.830;19.046;2023-10-19T12:33:07;99053.28;;;9.11;100.00
46347;BME280;32057;47.830;19.046;2023-10-19T12:35:45;99049.84;;;9.14;100.00
46347;BME280;32057;47.830;19.046;2023-10-19T12:38:22;99047.25;;;9.11;100.00
46347;BME280;32057;47.830;19.046;2023-10-19T12:40:50;99041.19;;;9.13;100.00
46347;BME280;32057;47.830;19.046;2023-10-19T12:43:20;99037.75;;;9.16;100.00
46347;BME280;32057;47.830;19.046;2023-10-19T12:45:47;99039.50;;;9.17;100.00
46347;BME280;32057;47.830;19.046;2023-10-19T12:48:16;99046.41;;;9.18;100.00
46347;BME280;32057;47.830;19.046;2023-10-19T12:50:42;99042.94;;;9.16;100.00
46347;BME280;32057;47.830;19.046;2023-10-19T12:53:08;99033.41;;;9.16;100.00
46347;BME280;32057;47.830;19.046;2023-10-19T12:55:34;99034.28;;;9.14;100.00
46347;BME280;32057;47.830;19.046;2023-10-19T12:58:02;99032.56;;;9.13;100.00
46347;BME280;32057;47.830;19.046;2023-10-19T13:00:37;99031.66;;;9.09;100.00
46347;BME280;32057;47.830;19.046;2023-10-19T13:03:14;99029.06;;;9.09;100.00
46347;BME280;32057;47.830;19.046;2023-10-19T13:05:40;99031.66;;;9.05;100.00
46347;BME280;32057;47.830;19.046;2023-10-19T13:08:12;99029.00;;;8.98;100.00
46347;BME280;32057;47.830;19.046;2023-10-19T13:10:45;99024.63;;;8.94;100.00
46347;BME280;32057;47.830;19.046;2023-10-19T13:13:13;99011.66;;;8.94;100.00
46347;BME280;32057;47.830;19.046;2023-10-19T13:15:45;99022.06;;;8.97;100.00
46347;BME280;32057;47.830;19.046;2023-10-19T13:18:12;99016.88;;;8.97;100.00